Fannett, Texas
Current Conditions -  °F | °C
As of 8:53 AM on Monday 22 Dec 2014 (Local Time) from KBPT Reporting Station
Haze Haze  
Wind Chill: 62°   Ceiling: 1100
Heat Index: 62°   Visibility: 3mi
Dew Point: 60°   Wind: 8mph
Humidity: 93%   Direction: 130°SE
Pressure: 29.76"   Gusts: NA
Location:  29.9571°N, 94.1363°W
Report Text: KBPT 221453Z 13007KT 3SM BR SCT003 OVC011 17/16 A2976 RMK AO2 SLP079 T01670156 56005
Loading
Personal Weather Stations






























Interactive Weather Map New forecast layout! Learn more

10-Day Weather Forecast

Advertisements
Track Severe Weather on mobile